sensor_id;sensor_type;location;lat;lon;timestamp;P1;durP1;ratioP1;P2;durP2;ratioP2
27402;SDS011;14862;49.494;8.530;2023-03-19T00:02:10;8.77;;;6.22;;
27402;SDS011;14862;49.494;8.530;2023-03-19T00:04:36;9.73;;;6.10;;
27402;SDS011;14862;49.494;8.530;2023-03-19T00:07:01;9.70;;;6.35;;
27402;SDS011;14862;49.494;8.530;2023-03-19T00:09:26;9.93;;;7.00;;
27402;SDS011;14862;49.494;8.530;2023-03-19T00:11:52;15.18;;;6.78;;
27402;SDS011;14862;49.494;8.530;2023-03-19T00:14:17;16.75;;;7.78;;
27402;SDS011;14862;49.494;8.530;2023-03-19T00:16:42;11.65;;;7.38;;
27402;SDS011;14862;49.494;8.530;2023-03-19T00:19:08;13.57;;;7.35;;
27402;SDS011;14862;49.494;8.530;2023-03-19T00:21:33;12.45;;;7.10;;
27402;SDS011;14862;49.494;8.530;2023-03-19T00:23:59;12.60;;;7.43;;
27402;SDS011;14862;49.494;8.530;2023-03-19T00:26:29;17.70;;;7.85;;
27402;SDS011;14862;49.494;8.530;2023-03-19T00:28:55;11.82;;;7.53;;
27402;SDS011;14862;49.494;8.530;2023-03-19T00:31:21;11.82;;;6.75;;
27402;SDS011;14862;49.494;8.530;2023-03-19T00:33:46;12.07;;;7.55;;
27402;SDS011;14862;49.494;8.530;2023-03-19T00:36:12;11.93;;;7.20;;
27402;SDS011;14862;49.494;8.530;2023-03-19T00:38:37;11.02;;;6.60;;
27402;SDS011;14862;49.494;8.530;2023-03-19T00:41:03;12.30;;;7.07;;
27402;SDS011;14862;49.494;8.530;2023-03-19T00:43:29;10.98;;;6.78;;
27402;SDS011;14862;49.494;8.530;2023-03-19T00:45:55;15.48;;;7.80;;
27402;SDS011;14862;49.494;8.530;2023-03-19T00:48:20;12.75;;;6.93;;
27402;SDS011;14862;49.494;8.530;2023-03-19T00:50:46;13.20;;;6.95;;
27402;SDS011;14862;49.494;8.530;2023-03-19T00:53:11;12.45;;;6.78;;
27402;SDS011;14862;49.494;8.530;2023-03-19T00:55:36;12.18;;;6.93;;
27402;SDS011;14862;49.494;8.530;2023-03-19T00:58:02;12.60;;;7.05;;
27402;SDS011;14862;49.494;8.530;2023-03-19T01:00:27;15.00;;;7.00;;
27402;SDS011;14862;49.494;8.530;2023-03-19T01:02:53;10.00;;;6.78;;
27402;SDS011;14862;49.494;8.530;2023-03-19T01:05:18;10.57;;;6.65;;
27402;SDS011;14862;49.494;8.530;2023-03-19T01:07:43;10.15;;;6.13;;
27402;SDS011;14862;49.494;8.530;2023-03-19T01:10:09;12.63;;;6.05;;
27402;SDS011;14862;49.494;8.530;2023-03-19T01:12:34;12.77;;;5.88;;
27402;SDS011;14862;49.494;8.530;2023-03-19T01:15:00;10.70;;;5.90;;
27402;SDS011;14862;49.494;8.530;2023-03-19T01:17:25;13.27;;;6.13;;
27402;SDS011;14862;49.494;8.530;2023-03-19T01:19:50;9.93;;;5.47;;
27402;SDS011;14862;49.494;8.530;2023-03-19T01:22:16;8.27;;;5.05;;
27402;SDS011;14862;49.494;8.530;2023-03-19T01:24:41;10.13;;;6.00;;
27402;SDS011;14862;49.494;8.530;2023-03-19T01:27:07;11.43;;;6.13;;
27402;SDS011;14862;49.494;8.530;2023-03-19T01:29:32;14.82;;;5.80;;
27402;SDS011;14862;49.494;8.530;2023-03-19T01:31:57;7.95;;;5.72;;
27402;SDS011;14862;49.494;8.530;2023-03-19T01:34:23;8.40;;;5.22;;
27402;SDS011;14862;49.494;8.530;2023-03-19T01:36:48;15.32;;;5.90;;
27402;SDS011;14862;49.494;8.530;2023-03-19T01:39:13;11.50;;;5.90;;
27402;SDS011;14862;49.494;8.530;2023-03-19T01:41:38;13.30;;;6.32;;
27402;SDS011;14862;49.494;8.530;2023-03-19T01:44:21;11.95;;;5.65;;
27402;SDS011;14862;49.494;8.530;2023-03-19T01:46:46;9.57;;;5.43;;
27402;SDS011;14862;49.494;8.530;2023-03-19T01:49:12;10.10;;;5.60;;
27402;SDS011;14862;49.494;8.530;2023-03-19T01:51:38;8.75;;;5.82;;
27402;SDS011;14862;49.494;8.530;2023-03-19T01:54:09;11.50;;;6.53;;
27402;SDS011;14862;49.494;8.530;2023-03-19T01:56:36;10.45;;;6.35;;
27402;SDS011;14862;49.494;8.530;2023-03-19T01:59:16;13.52;;;5.95;;
27402;SDS011;14862;49.494;8.530;2023-03-19T02:04:25;13.18;;;6.38;;
27402;SDS011;14862;49.494;8.530;2023-03-19T02:06:51;11.85;;;6.00;;
27402;SDS011;14862;49.494;8.530;2023-03-19T02:09:17;10.52;;;5.10;;
27402;SDS011;14862;49.494;8.530;2023-03-19T02:11:43;7.53;;;5.05;;
27402;SDS011;14862;49.494;8.530;2023-03-19T02:14:09;11.77;;;5.85;;
27402;SDS011;14862;49.494;8.530;2023-03-19T02:16:34;10.52;;;6.15;;
27402;SDS011;14862;49.494;8.530;2023-03-19T02:18:59;18.92;;;6.90;;
27402;SDS011;14862;49.494;8.530;2023-03-19T02:21:25;11.32;;;7.03;;
27402;SDS011;14862;49.494;8.530;2023-03-19T02:26:35;9.43;;;5.70;;
27402;SDS011;14862;49.494;8.530;2023-03-19T02:29:00;13.07;;;6.43;;
27402;SDS011;14862;49.494;8.530;2023-03-19T02:31:26;10.68;;;6.25;;
27402;SDS011;14862;49.494;8.530;2023-03-19T02:33:58;10.82;;;5.82;;
27402;SDS011;14862;49.494;8.530;2023-03-19T02:36:24;11.38;;;6.03;;
27402;SDS011;14862;49.494;8.530;2023-03-19T02:38:52;8.82;;;5.65;;
27402;SDS011;14862;49.494;8.530;2023-03-19T02:41:17;9.93;;;5.65;;
27402;SDS011;14862;49.494;8.530;2023-03-19T02:43:43;8.95;;;6.35;;
27402;SDS011;14862;49.494;8.530;2023-03-19T02:46:10;12.45;;;5.80;;
27402;SDS011;14862;49.494;8.530;2023-03-19T02:48:36;9.77;;;5.57;;
27402;SDS011;14862;49.494;8.530;2023-03-19T02:51:01;10.70;;;5.47;;
27402;SDS011;14862;49.494;8.530;2023-03-19T02:53:26;11.10;;;6.00;;
27402;SDS011;14862;49.494;8.530;2023-03-19T02:55:52;8.85;;;5.47;;
27402;SDS011;14862;49.494;8.530;2023-03-19T02:58:17;10.07;;;5.85;;
27402;SDS011;14862;49.494;8.530;2023-03-19T03:00:43;8.60;;;5.68;;
27402;SDS011;14862;49.494;8.530;2023-03-19T03:03:09;7.88;;;5.32;;
27402;SDS011;14862;49.494;8.530;2023-03-19T03:05:34;10.07;;;5.07;;
27402;SDS011;14862;49.494;8.530;2023-03-19T03:08:00;7.47;;;5.32;;
27402;SDS011;14862;49.494;8.530;2023-03-19T03:10:27;12.73;;;5.53;;
27402;SDS011;14862;49.494;8.530;2023-03-19T03:12:52;9.25;;;5.18;;
27402;SDS011;14862;49.494;8.530;2023-03-19T03:15:17;14.23;;;5.13;;
27402;SDS011;14862;49.494;8.530;2023-03-19T03:17:43;11.50;;;6.07;;
27402;SDS011;14862;49.494;8.530;2023-03-19T03:20:09;8.20;;;5.00;;
27402;SDS011;14862;49.494;8.530;2023-03-19T03:22:35;10.50;;;5.78;;
27402;SDS011;14862;49.494;8.530;2023-03-19T03:25:00;8.50;;;5.43;;
27402;SDS011;14862;49.494;8.530;2023-03-19T03:27:26;12.52;;;5.82;;
27402;SDS011;14862;49.494;8.530;2023-03-19T03:29:51;8.13;;;5.18;;
27402;SDS011;14862;49.494;8.530;2023-03-19T03:32:17;8.50;;;5.30;;
27402;SDS011;14862;49.494;8.530;2023-03-19T03:34:42;12.30;;;5.90;;
27402;SDS011;14862;49.494;8.530;2023-03-19T03:37:07;9.18;;;5.57;;
27402;SDS011;14862;49.494;8.530;2023-03-19T03:39:33;9.30;;;6.20;;
27402;SDS011;14862;49.494;8.530;2023-03-19T03:41:58;9.75;;;5.45;;
27402;SDS011;14862;49.494;8.530;2023-03-19T03:44:23;9.40;;;5.77;;
27402;SDS011;14862;49.494;8.530;2023-03-19T03:46:48;7.43;;;5.25;;
27402;SDS011;14862;49.494;8.530;2023-03-19T03:49:14;13.50;;;5.10;;
27402;SDS011;14862;49.494;8.530;2023-03-19T03:51:39;8.88;;;5.15;;
27402;SDS011;14862;49.494;8.530;2023-03-19T03:54:05;11.77;;;5.72;;
27402;SDS011;14862;49.494;8.530;2023-03-19T03:56:30;8.70;;;5.32;;
27402;SDS011;14862;49.494;8.530;2023-03-19T03:58:57;10.00;;;5.35;;
27402;SDS011;14862;49.494;8.530;2023-03-19T04:01:22;9.17;;;5.67;;
27402;SDS011;14862;49.494;8.530;2023-03-19T04:03:47;7.03;;;4.80;;
27402;SDS011;14862;49.494;8.530;2023-03-19T04:06:13;12.38;;;5.32;;
27402;SDS011;14862;49.494;8.530;2023-03-19T04:08:39;8.63;;;5.38;;
27402;SDS011;14862;49.494;8.530;2023-03-19T04:11:07;12.47;;;5.73;;
27402;SDS011;14862;49.494;8.530;2023-03-19T04:13:33;6.90;;;5.20;;
27402;SDS011;14862;49.494;8.530;2023-03-19T04:16:02;10.52;;;6.43;;
27402;SDS011;14862;49.494;8.530;2023-03-19T04:18:27;6.95;;;5.32;;
27402;SDS011;14862;49.494;8.530;2023-03-19T04:20:52;9.43;;;6.10;;
27402;SDS011;14862;49.494;8.530;2023-03-19T04:23:17;10.80;;;5.78;;
27402;SDS011;14862;49.494;8.530;2023-03-19T04:25:42;10.77;;;5.70;;
27402;SDS011;14862;49.494;8.530;2023-03-19T04:28:08;10.67;;;5.70;;
27402;SDS011;14862;49.494;8.530;2023-03-19T04:30:33;11.43;;;5.57;;
27402;SDS011;14862;49.494;8.530;2023-03-19T04:32:58;12.40;;;5.45;;
27402;SDS011;14862;49.494;8.530;2023-03-19T04:35:23;9.50;;;5.47;;
27402;SDS011;14862;49.494;8.530;2023-03-19T04:37:48;10.63;;;5.78;;
27402;SDS011;14862;49.494;8.530;2023-03-19T04:40:14;7.60;;;4.75;;
27402;SDS011;14862;49.494;8.530;2023-03-19T04:42:40;10.70;;;5.65;;
27402;SDS011;14862;49.494;8.530;2023-03-19T04:45:08;10.07;;;5.03;;
27402;SDS011;14862;49.494;8.530;2023-03-19T04:47:34;11.38;;;5.45;;
27402;SDS011;14862;49.494;8.530;2023-03-19T04:49:59;8.10;;;5.40;;
27402;SDS011;14862;49.494;8.530;2023-03-19T04:52:24;9.23;;;4.97;;
27402;SDS011;14862;49.494;8.530;2023-03-19T04:54:50;11.23;;;5.47;;
27402;SDS011;14862;49.494;8.530;2023-03-19T04:57:15;7.93;;;4.78;;
27402;SDS011;14862;49.494;8.530;2023-03-19T04:59:40;10.23;;;6.80;;
27402;SDS011;14862;49.494;8.530;2023-03-19T05:02:06;11.55;;;4.78;;
27402;SDS011;14862;49.494;8.530;2023-03-19T05:04:31;10.52;;;5.65;;
27402;SDS011;14862;49.494;8.530;2023-03-19T05:06:57;8.70;;;5.05;;
27402;SDS011;14862;49.494;8.530;2023-03-19T05:09:22;11.85;;;5.45;;
27402;SDS011;14862;49.494;8.530;2023-03-19T05:11:47;6.75;;;4.90;;
27402;SDS011;14862;49.494;8.530;2023-03-19T05:14:12;10.30;;;5.60;;
27402;SDS011;14862;49.494;8.530;2023-03-19T05:16:37;9.43;;;5.45;;
27402;SDS011;14862;49.494;8.530;2023-03-19T05:19:03;9.07;;;5.93;;
27402;SDS011;14862;49.494;8.530;2023-03-19T05:21:29;8.95;;;4.53;;
27402;SDS011;14862;49.494;8.530;2023-03-19T05:23:54;9.25;;;4.80;;
27402;SDS011;14862;49.494;8.530;2023-03-19T05:26:21;11.70;;;6.28;;
27402;SDS011;14862;49.494;8.530;2023-03-19T05:28:46;7.20;;;5.22;;
27402;SDS011;14862;49.494;8.530;2023-03-19T05:31:11;10.43;;;5.30;;
27402;SDS011;14862;49.494;8.530;2023-03-19T05:33:37;8.10;;;5.43;;
27402;SDS011;14862;49.494;8.530;2023-03-19T05:36:02;8.45;;;5.00;;
27402;SDS011;14862;49.494;8.530;2023-03-19T05:38:27;12.30;;;5.68;;
27402;SDS011;14862;49.494;8.530;2023-03-19T05:40:52;10.88;;;5.30;;
27402;SDS011;14862;49.494;8.530;2023-03-19T05:43:18;8.57;;;6.03;;
27402;SDS011;14862;49.494;8.530;2023-03-19T05:45:48;8.43;;;5.23;;
27402;SDS011;14862;49.494;8.530;2023-03-19T05:48:13;11.07;;;5.38;;
27402;SDS011;14862;49.494;8.530;2023-03-19T05:50:39;9.52;;;5.68;;
27402;SDS011;14862;49.494;8.530;2023-03-19T05:53:06;8.55;;;5.25;;
27402;SDS011;14862;49.494;8.530;2023-03-19T05:55:31;9.27;;;5.27;;
27402;SDS011;14862;49.494;8.530;2023-03-19T05:57:56;8.23;;;5.53;;
27402;SDS011;14862;49.494;8.530;2023-03-19T06:00:22;9.97;;;5.67;;
27402;SDS011;14862;49.494;8.530;2023-03-19T06:02:47;11.77;;;5.30;;
27402;SDS011;14862;49.494;8.530;2023-03-19T06:05:13;9.45;;;5.72;;
27402;SDS011;14862;49.494;8.530;2023-03-19T06:07:39;9.98;;;5.50;;
27402;SDS011;14862;49.494;8.530;2023-03-19T06:10:04;11.63;;;5.38;;
27402;SDS011;14862;49.494;8.530;2023-03-19T06:12:30;9.10;;;5.47;;
27402;SDS011;14862;49.494;8.530;2023-03-19T06:14:55;9.43;;;5.80;;
27402;SDS011;14862;49.494;8.530;2023-03-19T06:17:21;8.48;;;5.40;;
27402;SDS011;14862;49.494;8.530;2023-03-19T06:19:46;11.00;;;5.28;;
27402;SDS011;14862;49.494;8.530;2023-03-19T06:22:11;8.93;;;5.35;;
27402;SDS011;14862;49.494;8.530;2023-03-19T06:24:36;9.15;;;5.18;;
27402;SDS011;14862;49.494;8.530;2023-03-19T06:27:02;9.80;;;5.35;;
27402;SDS011;14862;49.494;8.530;2023-03-19T06:29:27;10.68;;;5.22;;
27402;SDS011;14862;49.494;8.530;2023-03-19T06:31:53;8.40;;;5.47;;
27402;SDS011;14862;49.494;8.530;2023-03-19T06:34:18;9.15;;;6.40;;
27402;SDS011;14862;49.494;8.530;2023-03-19T06:36:43;10.10;;;5.40;;
27402;SDS011;14862;49.494;8.530;2023-03-19T06:39:08;8.65;;;5.72;;
27402;SDS011;14862;49.494;8.530;2023-03-19T06:41:34;8.57;;;5.55;;
27402;SDS011;14862;49.494;8.530;2023-03-19T06:43:59;12.07;;;5.07;;
27402;SDS011;14862;49.494;8.530;2023-03-19T06:46:25;7.50;;;5.25;;
27402;SDS011;14862;49.494;8.530;2023-03-19T06:48:50;8.23;;;4.75;;
27402;SDS011;14862;49.494;8.530;2023-03-19T06:51:15;9.68;;;4.90;;
27402;SDS011;14862;49.494;8.530;2023-03-19T06:53:41;10.25;;;4.75;;
27402;SDS011;14862;49.494;8.530;2023-03-19T06:56:06;11.53;;;5.40;;
27402;SDS011;14862;49.494;8.530;2023-03-19T06:58:31;7.45;;;5.25;;
27402;SDS011;14862;49.494;8.530;2023-03-19T07:00:57;9.93;;;6.30;;
27402;SDS011;14862;49.494;8.530;2023-03-19T07:03:22;9.00;;;5.03;;
27402;SDS011;14862;49.494;8.530;2023-03-19T07:05:50;8.00;;;4.80;;
27402;SDS011;14862;49.494;8.530;2023-03-19T07:08:16;7.72;;;5.15;;
27402;SDS011;14862;49.494;8.530;2023-03-19T07:10:41;9.32;;;4.97;;
27402;SDS011;14862;49.494;8.530;2023-03-19T07:13:06;10.38;;;4.90;;
27402;SDS011;14862;49.494;8.530;2023-03-19T07:15:32;7.77;;;4.87;;
27402;SDS011;14862;49.494;8.530;2023-03-19T07:17:57;6.22;;;4.53;;
27402;SDS011;14862;49.494;8.530;2023-03-19T07:20:22;7.97;;;4.88;;
27402;SDS011;14862;49.494;8.530;2023-03-19T07:22:50;9.90;;;4.70;;
27402;SDS011;14862;49.494;8.530;2023-03-19T07:25:15;7.95;;;4.72;;
27402;SDS011;14862;49.494;8.530;2023-03-19T07:27:41;6.90;;;4.65;;
27402;SDS011;14862;49.494;8.530;2023-03-19T07:30:06;7.07;;;4.68;;
27402;SDS011;14862;49.494;8.530;2023-03-19T07:32:32;11.18;;;5.20;;
27402;SDS011;14862;49.494;8.530;2023-03-19T07:34:57;12.98;;;6.45;;
27402;SDS011;14862;49.494;8.530;2023-03-19T07:37:22;8.87;;;5.70;;
27402;SDS011;14862;49.494;8.530;2023-03-19T07:39:47;10.77;;;5.40;;
27402;SDS011;14862;49.494;8.530;2023-03-19T07:42:13;7.43;;;5.40;;
27402;SDS011;14862;49.494;8.530;2023-03-19T07:44:38;9.73;;;4.55;;
27402;SDS011;14862;49.494;8.530;2023-03-19T07:47:03;7.22;;;4.65;;
27402;SDS011;14862;49.494;8.530;2023-03-19T07:49:28;7.55;;;5.00;;
27402;SDS011;14862;49.494;8.530;2023-03-19T07:51:54;7.40;;;4.60;;
27402;SDS011;14862;49.494;8.530;2023-03-19T07:54:19;8.35;;;4.63;;
27402;SDS011;14862;49.494;8.530;2023-03-19T07:56:45;6.50;;;4.47;;
27402;SDS011;14862;49.494;8.530;2023-03-19T07:59:10;8.05;;;4.68;;
27402;SDS011;14862;49.494;8.530;2023-03-19T08:01:35;7.72;;;4.07;;
27402;SDS011;14862;49.494;8.530;2023-03-19T08:04:01;7.97;;;4.35;;
27402;SDS011;14862;49.494;8.530;2023-03-19T08:06:26;6.15;;;4.28;;
27402;SDS011;14862;49.494;8.530;2023-03-19T08:08:51;8.52;;;4.65;;
27402;SDS011;14862;49.494;8.530;2023-03-19T08:11:17;6.50;;;4.65;;
27402;SDS011;14862;49.494;8.530;2023-03-19T08:13:42;7.25;;;4.18;;
27402;SDS011;14862;49.494;8.530;2023-03-19T08:16:07;9.75;;;4.10;;
27402;SDS011;14862;49.494;8.530;2023-03-19T08:18:33;8.18;;;4.45;;
27402;SDS011;14862;49.494;8.530;2023-03-19T08:20:58;6.60;;;4.32;;
27402;SDS011;14862;49.494;8.530;2023-03-19T08:23:23;10.27;;;4.28;;
27402;SDS011;14862;49.494;8.530;2023-03-19T08:25:49;6.38;;;4.30;;
27402;SDS011;14862;49.494;8.530;2023-03-19T08:28:16;6.85;;;3.63;;
27402;SDS011;14862;49.494;8.530;2023-03-19T08:30:41;10.38;;;4.70;;
27402;SDS011;14862;49.494;8.530;2023-03-19T08:33:06;8.45;;;4.57;;
27402;SDS011;14862;49.494;8.530;2023-03-19T08:35:32;8.80;;;5.05;;
27402;SDS011;14862;49.494;8.530;2023-03-19T08:37:58;8.18;;;4.55;;
27402;SDS011;14862;49.494;8.530;2023-03-19T08:40:24;6.30;;;3.80;;
27402;SDS011;14862;49.494;8.530;2023-03-19T08:42:49;8.63;;;4.82;;
27402;SDS011;14862;49.494;8.530;2023-03-19T08:45:15;6.90;;;3.93;;
27402;SDS011;14862;49.494;8.530;2023-03-19T08:47:40;7.20;;;3.90;;
27402;SDS011;14862;49.494;8.530;2023-03-19T08:50:06;5.97;;;3.78;;
27402;SDS011;14862;49.494;8.530;2023-03-19T08:52:31;8.13;;;3.85;;
27402;SDS011;14862;49.494;8.530;2023-03-19T08:54:57;5.85;;;3.85;;
27402;SDS011;14862;49.494;8.530;2023-03-19T08:57:22;6.93;;;3.97;;
27402;SDS011;14862;49.494;8.530;2023-03-19T08:59:47;5.60;;;3.58;;
27402;SDS011;14862;49.494;8.530;2023-03-19T09:02:12;8.00;;;3.38;;
27402;SDS011;14862;49.494;8.530;2023-03-19T09:04:41;6.28;;;3.53;;
27402;SDS011;14862;49.494;8.530;2023-03-19T09:07:07;5.32;;;3.33;;
27402;SDS011;14862;49.494;8.530;2023-03-19T09:09:32;4.80;;;3.10;;
27402;SDS011;14862;49.494;8.530;2023-03-19T09:11:57;8.65;;;3.40;;
27402;SDS011;14862;49.494;8.530;2023-03-19T09:14:23;9.32;;;3.58;;
27402;SDS011;14862;49.494;8.530;2023-03-19T09:16:48;4.82;;;2.80;;
27402;SDS011;14862;49.494;8.530;2023-03-19T09:19:13;5.83;;;2.90;;
27402;SDS011;14862;49.494;8.530;2023-03-19T09:21:38;4.65;;;2.50;;
27402;SDS011;14862;49.494;8.530;2023-03-19T09:24:04;4.30;;;2.80;;
27402;SDS011;14862;49.494;8.530;2023-03-19T09:26:29;6.78;;;2.78;;
27402;SDS011;14862;49.494;8.530;2023-03-19T09:28:55;4.63;;;2.83;;
27402;SDS011;14862;49.494;8.530;2023-03-19T09:31:20;5.72;;;2.50;;
27402;SDS011;14862;49.494;8.530;2023-03-19T09:33:45;3.42;;;2.45;;
27402;SDS011;14862;49.494;8.530;2023-03-19T09:36:10;5.45;;;2.28;;
27402;SDS011;14862;49.494;8.530;2023-03-19T09:38:36;2.80;;;2.03;;
27402;SDS011;14862;49.494;8.530;2023-03-19T09:46:14;3.88;;;1.80;;
27402;SDS011;14862;49.494;8.530;2023-03-19T09:51:17;5.22;;;2.00;;
27402;SDS011;14862;49.494;8.530;2023-03-19T09:53:53;4.80;;;2.42;;
27402;SDS011;14862;49.494;8.530;2023-03-19T09:56:20;7.90;;;3.13;;
27402;SDS011;14862;49.494;8.530;2023-03-19T09:58:46;5.40;;;2.15;;
27402;SDS011;14862;49.494;8.530;2023-03-19T10:01:19;4.85;;;2.13;;
27402;SDS011;14862;49.494;8.530;2023-03-19T10:06:51;3.97;;;2.80;;
27402;SDS011;14862;49.494;8.530;2023-03-19T10:17:53;4.13;;;2.50;;
27402;SDS011;14862;49.494;8.530;2023-03-19T10:20:03;5.30;;;2.75;;
27402;SDS011;14862;49.494;8.530;2023-03-19T10:22:32;4.85;;;2.60;;
27402;SDS011;14862;49.494;8.530;2023-03-19T10:24:59;5.03;;;2.50;;
27402;SDS011;14862;49.494;8.530;2023-03-19T10:27:25;4.57;;;2.35;;
27402;SDS011;14862;49.494;8.530;2023-03-19T10:29:52;6.03;;;2.40;;
27402;SDS011;14862;49.494;8.530;2023-03-19T10:34:55;3.95;;;2.17;;
27402;SDS011;14862;49.494;8.530;2023-03-19T10:37:23;2.70;;;1.67;;
27402;SDS011;14862;49.494;8.530;2023-03-19T10:39:50;3.72;;;2.13;;
27402;SDS011;14862;49.494;8.530;2023-03-19T10:47:29;5.45;;;2.40;;
27402;SDS011;14862;49.494;8.530;2023-03-19T10:49:59;7.90;;;2.60;;
27402;SDS011;14862;49.494;8.530;2023-03-19T10:52:27;3.70;;;2.28;;
27402;SDS011;14862;49.494;8.530;2023-03-19T10:54:54;3.42;;;2.15;;
27402;SDS011;14862;49.494;8.530;2023-03-19T10:57:26;4.72;;;2.15;;
27402;SDS011;14862;49.494;8.530;2023-03-19T10:59:52;3.67;;;2.20;;
27402;SDS011;14862;49.494;8.530;2023-03-19T11:02:19;4.78;;;2.22;;
27402;SDS011;14862;49.494;8.530;2023-03-19T11:04:44;5.35;;;2.45;;
27402;SDS011;14862;49.494;8.530;2023-03-19T11:07:11;8.13;;;2.78;;
27402;SDS011;14862;49.494;8.530;2023-03-19T11:09:40;4.53;;;2.28;;
27402;SDS011;14862;49.494;8.530;2023-03-19T11:14:40;4.03;;;2.15;;
27402;SDS011;14862;49.494;8.530;2023-03-19T11:19:53;4.22;;;2.30;;
27402;SDS011;14862;49.494;8.530;2023-03-19T11:24:48;5.85;;;2.50;;
27402;SDS011;14862;49.494;8.530;2023-03-19T11:27:14;6.88;;;2.20;;
27402;SDS011;14862;49.494;8.530;2023-03-19T11:29:40;8.52;;;2.38;;
27402;SDS011;14862;49.494;8.530;2023-03-19T11:34:44;4.18;;;1.83;;
27402;SDS011;14862;49.494;8.530;2023-03-19T11:42:25;2.50;;;1.95;;
27402;SDS011;14862;49.494;8.530;2023-03-19T11:52:13;8.20;;;2.45;;
27402;SDS011;14862;49.494;8.530;2023-03-19T12:02:31;6.23;;;2.00;;
27402;SDS011;14862;49.494;8.530;2023-03-19T12:10:25;6.85;;;2.60;;
27402;SDS011;14862;49.494;8.530;2023-03-19T12:15:23;6.20;;;2.60;;
27402;SDS011;14862;49.494;8.530;2023-03-19T12:20:25;4.30;;;2.40;;
27402;SDS011;14862;49.494;8.530;2023-03-19T12:26:03;7.70;;;2.70;;
27402;SDS011;14862;49.494;8.530;2023-03-19T12:30:33;6.20;;;2.63;;
27402;SDS011;14862;49.494;8.530;2023-03-19T12:33:04;4.50;;;2.55;;
27402;SDS011;14862;49.494;8.530;2023-03-19T12:35:32;3.67;;;1.95;;
27402;SDS011;14862;49.494;8.530;2023-03-19T12:37:59;7.20;;;2.42;;
27402;SDS011;14862;49.494;8.530;2023-03-19T12:43:08;4.50;;;2.13;;
27402;SDS011;14862;49.494;8.530;2023-03-19T12:45:39;3.58;;;2.17;;
27402;SDS011;14862;49.494;8.530;2023-03-19T12:48:08;5.10;;;2.25;;
27402;SDS011;14862;49.494;8.530;2023-03-19T12:50:35;4.78;;;2.30;;
27402;SDS011;14862;49.494;8.530;2023-03-19T12:53:02;7.07;;;2.67;;
27402;SDS011;14862;49.494;8.530;2023-03-19T12:55:46;4.95;;;2.42;;
27402;SDS011;14862;49.494;8.530;2023-03-19T13:00:47;8.73;;;2.30;;
27402;SDS011;14862;49.494;8.530;2023-03-19T13:08:10;3.67;;;2.20;;
27402;SDS011;14862;49.494;8.530;2023-03-19T13:10:38;8.65;;;3.00;;
27402;SDS011;14862;49.494;8.530;2023-03-19T13:13:10;3.17;;;2.60;;
27402;SDS011;14862;49.494;8.530;2023-03-19T13:15:42;6.85;;;2.53;;
27402;SDS011;14862;49.494;8.530;2023-03-19T13:23:19;5.20;;;2.40;;
27402;SDS011;14862;49.494;8.530;2023-03-19T13:25:47;6.50;;;3.05;;
27402;SDS011;14862;49.494;8.530;2023-03-19T13:28:19;5.30;;;2.70;;
27402;SDS011;14862;49.494;8.530;2023-03-19T13:31:16;7.00;;;2.90;;
27402;SDS011;14862;49.494;8.530;2023-03-19T13:33:49;5.50;;;2.47;;
27402;SDS011;14862;49.494;8.530;2023-03-19T13:36:15;5.13;;;2.38;;
27402;SDS011;14862;49.494;8.530;2023-03-19T13:38:45;6.40;;;2.80;;
27402;SDS011;14862;49.494;8.530;2023-03-19T13:43:55;4.43;;;3.05;;
27402;SDS011;14862;49.494;8.530;2023-03-19T13:46:37;3.05;;;2.40;;
27402;SDS011;14862;49.494;8.530;2023-03-19T13:49:20;5.63;;;2.83;;
27402;SDS011;14862;49.494;8.530;2023-03-19T13:51:49;2.92;;;2.22;;
27402;SDS011;14862;49.494;8.530;2023-03-19T13:54:15;3.40;;;2.55;;
27402;SDS011;14862;49.494;8.530;2023-03-19T13:59:29;9.10;;;2.67;;
27402;SDS011;14862;49.494;8.530;2023-03-19T14:01:55;4.72;;;2.20;;
27402;SDS011;14862;49.494;8.530;2023-03-19T14:04:22;3.78;;;2.63;;
27402;SDS011;14862;49.494;8.530;2023-03-19T14:06:49;5.78;;;3.10;;
27402;SDS011;14862;49.494;8.530;2023-03-19T14:14:38;7.65;;;2.47;;
27402;SDS011;14862;49.494;8.530;2023-03-19T14:17:03;7.13;;;2.75;;
27402;SDS011;14862;49.494;8.530;2023-03-19T14:19:29;4.85;;;2.70;;
27402;SDS011;14862;49.494;8.530;2023-03-19T14:26:55;5.05;;;2.90;;
27402;SDS011;14862;49.494;8.530;2023-03-19T14:29:20;6.47;;;2.60;;
27402;SDS011;14862;49.494;8.530;2023-03-19T14:31:49;3.35;;;2.53;;
27402;SDS011;14862;49.494;8.530;2023-03-19T14:36:43;7.53;;;3.47;;
27402;SDS011;14862;49.494;8.530;2023-03-19T14:41:45;11.25;;;4.82;;
27402;SDS011;14862;49.494;8.530;2023-03-19T14:47:10;7.00;;;3.78;;
27402;SDS011;14862;49.494;8.530;2023-03-19T14:49:45;9.23;;;4.55;;
27402;SDS011;14862;49.494;8.530;2023-03-19T14:54:40;8.07;;;4.57;;
27402;SDS011;14862;49.494;8.530;2023-03-19T14:57:07;5.47;;;3.97;;
27402;SDS011;14862;49.494;8.530;2023-03-19T14:59:39;8.00;;;4.30;;
27402;SDS011;14862;49.494;8.530;2023-03-19T15:02:18;7.00;;;3.83;;
27402;SDS011;14862;49.494;8.530;2023-03-19T15:04:44;7.10;;;3.78;;
27402;SDS011;14862;49.494;8.530;2023-03-19T15:07:15;8.20;;;3.95;;
27402;SDS011;14862;49.494;8.530;2023-03-19T15:09:41;9.80;;;4.15;;
27402;SDS011;14862;49.494;8.530;2023-03-19T15:20:22;9.15;;;3.38;;
27402;SDS011;14862;49.494;8.530;2023-03-19T15:23:06;6.57;;;3.30;;
27402;SDS011;14862;49.494;8.530;2023-03-19T15:25:33;5.47;;;3.45;;
27402;SDS011;14862;49.494;8.530;2023-03-19T15:30:29;7.47;;;3.10;;
27402;SDS011;14862;49.494;8.530;2023-03-19T15:32:54;5.07;;;3.20;;
27402;SDS011;14862;49.494;8.530;2023-03-19T15:35:21;6.57;;;3.63;;
27402;SDS011;14862;49.494;8.530;2023-03-19T15:37:49;5.20;;;3.08;;
27402;SDS011;14862;49.494;8.530;2023-03-19T15:40:16;5.03;;;2.63;;
27402;SDS011;14862;49.494;8.530;2023-03-19T15:42:42;3.95;;;2.50;;
27402;SDS011;14862;49.494;8.530;2023-03-19T15:45:10;5.78;;;3.03;;
27402;SDS011;14862;49.494;8.530;2023-03-19T15:47:40;7.50;;;2.80;;
27402;SDS011;14862;49.494;8.530;2023-03-19T15:52:34;6.47;;;2.47;;
27402;SDS011;14862;49.494;8.530;2023-03-19T15:55:00;4.07;;;2.17;;
27402;SDS011;14862;49.494;8.530;2023-03-19T15:57:26;4.25;;;2.40;;
27402;SDS011;14862;49.494;8.530;2023-03-19T15:59:53;3.85;;;2.28;;
27402;SDS011;14862;49.494;8.530;2023-03-19T16:04:50;5.38;;;2.67;;
27402;SDS011;14862;49.494;8.530;2023-03-19T16:12:51;5.38;;;2.60;;
27402;SDS011;14862;49.494;8.530;2023-03-19T16:15:20;3.65;;;2.75;;
27402;SDS011;14862;49.494;8.530;2023-03-19T16:17:45;5.03;;;3.50;;
27402;SDS011;14862;49.494;8.530;2023-03-19T16:20:13;3.67;;;2.45;;
27402;SDS011;14862;49.494;8.530;2023-03-19T16:22:39;3.65;;;2.20;;
27402;SDS011;14862;49.494;8.530;2023-03-19T16:25:11;5.35;;;2.33;;
27402;SDS011;14862;49.494;8.530;2023-03-19T16:27:38;3.20;;;2.33;;
27402;SDS011;14862;49.494;8.530;2023-03-19T16:30:14;3.35;;;2.20;;
27402;SDS011;14862;49.494;8.530;2023-03-19T16:32:40;8.38;;;2.88;;
27402;SDS011;14862;49.494;8.530;2023-03-19T16:35:13;4.95;;;2.40;;
27402;SDS011;14862;49.494;8.530;2023-03-19T16:45:01;3.87;;;1.93;;
27402;SDS011;14862;49.494;8.530;2023-03-19T16:47:26;2.92;;;1.70;;
27402;SDS011;14862;49.494;8.530;2023-03-19T16:49:51;5.23;;;2.40;;
27402;SDS011;14862;49.494;8.530;2023-03-19T16:52:21;3.93;;;2.27;;
27402;SDS011;14862;49.494;8.530;2023-03-19T16:54:47;4.82;;;2.42;;
27402;SDS011;14862;49.494;8.530;2023-03-19T16:57:12;3.45;;;2.45;;
27402;SDS011;14862;49.494;8.530;2023-03-19T16:59:38;2.70;;;2.20;;
27402;SDS011;14862;49.494;8.530;2023-03-19T17:02:21;4.63;;;2.20;;
27402;SDS011;14862;49.494;8.530;2023-03-19T17:04:46;4.78;;;2.25;;
27402;SDS011;14862;49.494;8.530;2023-03-19T17:07:12;7.30;;;2.50;;
27402;SDS011;14862;49.494;8.530;2023-03-19T17:09:37;3.83;;;2.53;;